Time;durP1;ratioP1;P1;durP2;ratioP2;P2;SDS_P1;SDS_P2;PMS_P1;PMS_P2;Temp;Humidity;BMP_temperature;BMP_pressure;BME280_temperature;BME280_humidity;BME280_pressure;Samples;Min_cycle;Max_cycle;Signal;HPM_P1;HPM_P2
2024/04/01 00:00:40;;;;;;;16.95;8.32;;;11.60;99.90;;;;;;5073585;28;20283;-78
2024/04/01 00:03:06;;;;;;;12.15;7.68;;;11.50;99.90;;;;;;5073673;28;20503;-78
2024/04/01 00:05:32;;;;;;;13.88;7.80;;;11.50;99.90;;;;;;5073198;28;20032;-78
2024/04/01 00:07:57;;;;;;;12.73;7.60;;;11.50;99.90;;;;;;5073622;28;20157;-77
2024/04/01 00:10:24;;;;;;;13.98;7.80;;;11.50;99.90;;;;;;5073157;28;20020;-78
2024/04/01 00:12:49;;;;;;;13.65;7.07;;;11.50;99.90;;;;;;5073593;28;20025;-78
2024/04/01 00:15:16;;;;;;;12.40;7.25;;;11.50;99.90;;;;;;5073459;28;20074;-78
2024/04/01 00:17:42;;;;;;;10.43;7.53;;;11.40;99.90;;;;;;5071687;28;20020;-77
2024/04/01 00:20:08;;;;;;;12.38;6.85;;;11.40;99.90;;;;;;5073582;28;20027;-78
2024/04/01 00:22:34;;;;;;;12.05;6.80;;;11.40;99.90;;;;;;5072674;28;20029;-77
2024/04/01 00:25:00;;;;;;;13.48;7.10;;;11.30;99.90;;;;;;5073356;28;20401;-78
2024/04/01 00:27:26;;;;;;;11.63;7.57;;;11.30;99.90;;;;;;5072774;28;20036;-77
2024/04/01 00:29:52;;;;;;;14.02;7.07;;;11.30;99.90;;;;;;5073235;28;20024;-77
2024/04/01 00:32:18;;;;;;;11.63;7.20;;;11.30;99.90;;;;;;5072590;28;20025;-77
2024/04/01 00:34:43;;;;;;;13.40;7.15;;;11.30;99.90;;;;;;5073140;28;20103;-78
2024/04/01 00:37:09;;;;;;;12.52;7.57;;;11.30;99.90;;;;;;5072682;28;20017;-77
2024/04/01 00:39:34;;;;;;;10.43;6.47;;;11.30;99.90;;;;;;5072894;28;20081;-77
2024/04/01 00:42:00;;;;;;;13.85;6.75;;;11.30;99.90;;;;;;5072539;28;20489;-77
2024/04/01 00:44:26;;;;;;;13.00;6.55;;;11.30;99.90;;;;;;5072775;28;20497;-77
2024/04/01 00:46:52;;;;;;;14.10;7.15;;;11.20;99.90;;;;;;5072572;28;20031;-78
2024/04/01 00:49:19;;;;;;;11.93;6.65;;;11.20;99.90;;;;;;5072659;28;20021;-77
2024/04/01 00:51:45;;;;;;;11.55;6.82;;;11.20;99.90;;;;;;5072306;28;20050;-78
2024/04/01 00:54:12;;;;;;;12.52;6.90;;;11.10;99.90;;;;;;5073144;28;20025;-78
2024/04/01 00:56:41;;;;;;;11.93;6.90;;;11.10;99.90;;;;;;5072448;28;20028;-77
2024/04/01 00:59:06;;;;;;;16.23;8.38;;;11.10;99.90;;;;;;5072431;28;20021;-77
2024/04/01 01:01:33;;;;;;;12.07;7.88;;;11.10;99.90;;;;;;5072191;28;20039;-77
2024/04/01 01:04:00;;;;;;;13.43;7.95;;;11.00;99.90;;;;;;5071101;28;20036;-77
2024/04/01 01:06:27;;;;;;;12.10;8.25;;;11.00;99.90;;;;;;5071991;28;20054;-77
2024/04/01 01:08:54;;;;;;;13.75;8.93;;;11.00;99.90;;;;;;5072237;28;20051;-78
2024/04/01 01:11:19;;;;;;;11.40;8.07;;;11.00;99.90;;;;;;5071858;28;20604;-78
2024/04/01 01:13:45;;;;;;;14.30;8.13;;;10.90;99.90;;;;;;5072466;28;20107;-77
2024/04/01 01:16:11;;;;;;;13.10;8.82;;;10.90;99.90;;;;;;5070590;28;20020;-77
2024/04/01 01:18:37;;;;;;;12.65;7.13;;;10.90;99.90;;;;;;5072089;28;20017;-78
2024/04/01 01:21:03;;;;;;;12.55;7.40;;;10.90;99.90;;;;;;5071927;28;20047;-77
2024/04/01 01:23:28;;;;;;;13.40;8.80;;;10.90;99.90;;;;;;5072086;28;20090;-77
2024/04/01 01:25:54;;;;;;;12.23;7.88;;;10.80;99.90;;;;;;5071864;28;20485;-77
2024/04/01 01:28:21;;;;;;;12.85;8.68;;;10.90;99.90;;;;;;5071923;28;20116;-77
2024/04/01 01:30:47;;;;;;;14.40;8.65;;;10.80;99.90;;;;;;5071725;28;20309;-77
2024/04/01 01:33:13;;;;;;;12.70;7.55;;;10.80;99.90;;;;;;5072356;28;20028;-77
2024/04/01 01:35:39;;;;;;;11.25;6.70;;;10.80;99.90;;;;;;5071700;28;20029;-77
2024/04/01 01:38:05;;;;;;;12.35;6.30;;;10.80;99.90;;;;;;5070745;28;20389;-76
2024/04/01 01:40:31;;;;;;;11.15;5.32;;;10.80;99.90;;;;;;5072148;28;20029;-77
2024/04/01 01:42:57;;;;;;;11.80;5.72;;;10.80;99.90;;;;;;5071872;28;20078;-77
2024/04/01 01:45:23;;;;;;;10.70;5.40;;;10.80;99.90;;;;;;5072194;28;20020;-77
2024/04/01 01:47:48;;;;;;;9.00;5.30;;;10.80;99.90;;;;;;5071791;28;20036;-77
2024/04/01 01:50:14;;;;;;;11.63;4.90;;;10.80;99.90;;;;;;5071969;28;20052;-77
2024/04/01 01:52:40;;;;;;;9.27;5.00;;;10.80;99.90;;;;;;5070374;28;20020;-77
2024/04/01 01:55:07;;;;;;;7.90;5.13;;;10.80;99.90;;;;;;5071856;28;20466;-77
2024/04/01 01:57:33;;;;;;;9.82;5.70;;;10.80;99.90;;;;;;5071762;28;20099;-76
2024/04/01 01:59:59;;;;;;;9.73;4.93;;;10.80;99.90;;;;;;5072055;28;20077;-78
2024/04/01 02:02:25;;;;;;;12.82;5.40;;;10.80;99.90;;;;;;5071690;28;20191;-78
2024/04/01 02:04:51;;;;;;;9.77;5.57;;;10.80;99.90;;;;;;5072239;28;20102;-78
2024/04/01 02:07:17;;;;;;;10.55;5.00;;;10.80;99.90;;;;;;5071607;28;20035;-77
2024/04/01 02:09:43;;;;;;;8.70;4.90;;;10.80;99.90;;;;;;5070455;28;20028;-77
2024/04/01 02:12:08;;;;;;;12.75;5.85;;;10.80;99.90;;;;;;5073149;28;20399;-77
2024/04/01 02:14:35;;;;;;;8.85;5.05;;;10.80;99.90;;;;;;5076030;28;20074;-77
2024/04/01 02:17:00;;;;;;;7.63;4.40;;;10.80;99.90;;;;;;5075659;28;20019;-77
2024/04/01 02:19:26;;;;;;;8.63;4.03;;;10.70;99.90;;;;;;5075766;28;20028;-77
2024/04/01 02:21:52;;;;;;;7.15;4.32;;;10.70;99.90;;;;;;5075253;28;20111;-77
2024/04/01 02:24:17;;;;;;;8.23;4.53;;;10.70;99.90;;;;;;5074381;28;20021;-77
2024/04/01 02:26:47;;;;;;;7.25;4.50;;;10.70;99.90;;;;;;5075663;28;20025;-76
2024/04/01 02:29:13;;;;;;;9.68;4.45;;;10.70;99.90;;;;;;5075975;28;20032;-77
2024/04/01 02:31:38;;;;;;;7.93;4.22;;;10.70;99.90;;;;;;5074745;28;20024;-77
2024/04/01 02:34:05;;;;;;;10.13;4.10;;;10.70;99.90;;;;;;5075982;28;20070;-77
2024/04/01 02:36:31;;;;;;;8.07;4.22;;;10.70;99.90;;;;;;5075087;28;20016;-76
2024/04/01 02:38:57;;;;;;;6.45;3.80;;;10.70;99.90;;;;;;5076601;28;20035;-77
2024/04/01 02:41:22;;;;;;;7.05;3.97;;;10.70;99.90;;;;;;5075201;28;20024;-77
2024/04/01 02:43:48;;;;;;;8.20;3.97;;;10.60;99.90;;;;;;5076312;28;20074;-77
2024/04/01 02:46:14;;;;;;;4.85;3.38;;;10.60;99.90;;;;;;5078682;28;20017;-77
2024/04/01 02:48:41;;;;;;;7.03;3.85;;;10.60;99.90;;;;;;5078250;28;20024;-77
2024/04/01 02:51:07;;;;;;;7.35;3.60;;;10.60;99.90;;;;;;5076821;28;20037;-77
2024/04/01 02:53:33;;;;;;;7.90;3.63;;;10.60;99.90;;;;;;5077665;28;20024;-77
2024/04/01 02:55:58;;;;;;;10.52;3.95;;;10.60;99.90;;;;;;5076206;28;20024;-77
2024/04/01 02:58:24;;;;;;;8.70;4.13;;;10.60;99.90;;;;;;5079721;28;20044;-77
2024/04/01 03:00:50;;;;;;;7.50;3.72;;;10.60;99.90;;;;;;5078861;28;20162;-76
2024/04/01 03:03:16;;;;;;;6.05;3.50;;;10.60;99.90;;;;;;5078258;28;20029;-76
2024/04/01 03:05:41;;;;;;;8.70;4.32;;;10.70;99.90;;;;;;5078601;28;20051;-76
2024/04/01 03:08:08;;;;;;;7.40;3.58;;;10.70;99.90;;;;;;5077257;28;20033;-76
2024/04/01 03:10:36;;;;;;;8.02;4.07;;;10.60;99.90;;;;;;5078147;28;20508;-77
2024/04/01 03:13:06;;;;;;;8.60;4.28;;;10.60;99.90;;;;;;5078111;28;20020;-76
2024/04/01 03:15:33;;;;;;;10.63;4.05;;;10.60;99.90;;;;;;5078113;28;20020;-77
2024/04/01 03:17:58;;;;;;;6.38;3.65;;;10.60;99.90;;;;;;5078106;28;20021;-78
2024/04/01 03:20:25;;;;;;;7.00;4.10;;;10.50;99.90;;;;;;5075312;28;20469;-77
2024/04/01 03:22:50;;;;;;;8.38;3.80;;;10.50;99.90;;;;;;5074588;28;20032;-77
2024/04/01 03:25:16;;;;;;;8.13;3.63;;;10.50;99.90;;;;;;5075545;28;20017;-77
2024/04/01 03:27:42;;;;;;;9.35;3.75;;;10.40;99.90;;;;;;5073770;28;20028;-77
2024/04/01 03:30:09;;;;;;;7.70;3.88;;;10.40;99.90;;;;;;5074931;28;20086;-77
2024/04/01 03:32:36;;;;;;;9.07;4.15;;;10.40;99.90;;;;;;5074872;28;20048;-77
2024/04/01 03:35:02;;;;;;;8.48;3.80;;;10.40;99.90;;;;;;5075838;28;20024;-77
2024/04/01 03:37:28;;;;;;;7.90;4.20;;;10.30;99.90;;;;;;5083052;28;20039;-76
2024/04/01 03:39:54;;;;;;;5.80;3.70;;;10.30;99.90;;;;;;5092352;28;20020;-76
2024/04/01 03:42:19;;;;;;;6.45;4.05;;;10.30;99.90;;;;;;5086212;28;20028;-76
2024/04/01 03:44:45;;;;;;;8.00;3.95;;;10.30;99.90;;;;;;5075674;28;20024;-77
2024/04/01 03:47:11;;;;;;;9.57;4.13;;;10.30;99.90;;;;;;5074567;28;20054;-77
2024/04/01 03:49:38;;;;;;;6.70;4.00;;;10.30;99.90;;;;;;5075385;28;20017;-78
2024/04/01 03:52:05;;;;;;;8.95;4.20;;;10.20;99.90;;;;;;5074824;28;20024;-78
2024/04/01 03:54:31;;;;;;;9.25;3.90;;;10.20;99.90;;;;;;5077632;28;20025;-77
2024/04/01 03:56:57;;;;;;;7.88;3.78;;;10.20;99.90;;;;;;5076331;28;20440;-77
2024/04/01 03:59:22;;;;;;;8.32;4.05;;;10.20;99.90;;;;;;5076054;28;20125;-76
2024/04/01 04:01:48;;;;;;;9.50;4.38;;;10.20;99.90;;;;;;5073817;28;20029;-76
2024/04/01 04:04:14;;;;;;;5.28;3.60;;;10.20;99.90;;;;;;5074283;28;20020;-76
2024/04/01 04:06:40;;;;;;;8.27;3.53;;;10.10;99.90;;;;;;5075692;28;20017;-76
2024/04/01 04:09:15;;;;;;;7.32;4.40;;;10.10;99.90;;;;;;5074216;28;20089;-77
2024/04/01 04:11:50;;;;;;;7.70;4.32;;;10.10;99.90;;;;;;5072938;28;20028;-76
2024/04/01 04:14:20;;;;;;;10.38;4.82;;;10.10;99.90;;;;;;5073938;28;20074;-76
2024/04/01 04:16:46;;;;;;;7.75;4.15;;;10.10;99.90;;;;;;5072943;28;20020;-76
2024/04/01 04:19:14;;;;;;;6.57;4.05;;;10.10;99.90;;;;;;5073582;28;20021;-76
2024/04/01 04:21:39;;;;;;;11.07;4.60;;;10.10;99.90;;;;;;5071461;28;20363;-76
2024/04/01 04:24:05;;;;;;;13.32;4.68;;;10.10;99.90;;;;;;5073617;28;20027;-77
2024/04/01 04:26:31;;;;;;;6.93;4.55;;;10.00;99.90;;;;;;5072847;28;20035;-76
2024/04/01 04:28:56;;;;;;;5.95;4.05;;;10.10;99.90;;;;;;5073613;28;20021;-77
2024/04/01 04:31:23;;;;;;;11.07;4.80;;;10.00;99.90;;;;;;5072388;28;20536;-77
2024/04/01 04:33:48;;;;;;;8.85;4.70;;;10.00;99.90;;;;;;5072968;28;20027;-77
2024/04/01 04:36:14;;;;;;;7.28;3.75;;;10.00;99.90;;;;;;5072373;28;20477;-77
2024/04/01 04:38:40;;;;;;;8.00;4.53;;;10.00;99.90;;;;;;5073385;28;20037;-76
2024/04/01 04:41:06;;;;;;;8.25;4.13;;;10.00;99.90;;;;;;5072964;28;20024;-76
2024/04/01 04:43:32;;;;;;;8.43;4.78;;;10.00;99.90;;;;;;5072356;28;20050;-76
2024/04/01 04:45:59;;;;;;;8.52;4.90;;;10.00;99.90;;;;;;5073072;28;20032;-77
2024/04/01 04:48:26;;;;;;;8.65;5.20;;;10.00;99.90;;;;;;5072073;28;20017;-76
2024/04/01 04:50:52;;;;;;;6.90;4.65;;;10.00;99.90;;;;;;5071479;28;20048;-76
2024/04/01 04:53:18;;;;;;;8.23;4.53;;;10.00;99.90;;;;;;5072222;28;20108;-77
2024/04/01 04:55:44;;;;;;;6.75;4.32;;;10.00;99.90;;;;;;5073433;28;20204;-77
2024/04/01 04:58:09;;;;;;;6.72;4.50;;;10.00;99.90;;;;;;5071989;28;20253;-77
2024/04/01 05:00:36;;;;;;;8.25;4.32;;;10.00;99.90;;;;;;5072839;28;20549;-76
2024/04/01 05:03:05;;;;;;;8.02;4.13;;;10.00;99.90;;;;;;5071844;28;20032;-77
2024/04/01 05:05:31;;;;;;;7.15;4.28;;;10.00;99.90;;;;;;5071609;28;20028;-77
2024/04/01 05:07:57;;;;;;;8.80;4.30;;;10.00;99.90;;;;;;5071953;28;20035;-77
2024/04/01 05:10:22;;;;;;;10.02;4.28;;;10.00;99.90;;;;;;5072534;28;20025;-77
2024/04/01 05:12:48;;;;;;;7.55;4.22;;;10.00;99.90;;;;;;5070332;28;20036;-77
2024/04/01 05:15:14;;;;;;;6.22;4.00;;;10.00;99.90;;;;;;5072632;28;20425;-76
2024/04/01 05:17:40;;;;;;;5.55;4.03;;;10.00;99.90;;;;;;5071589;28;20389;-76
2024/04/01 05:20:06;;;;;;;8.43;4.18;;;10.00;99.90;;;;;;5072420;28;20028;-76
2024/04/01 05:22:31;;;;;;;7.95;4.00;;;10.00;99.90;;;;;;5071761;28;20048;-76
2024/04/01 05:24:57;;;;;;;6.90;4.57;;;10.00;99.90;;;;;;5071151;28;20386;-77
2024/04/01 05:27:23;;;;;;;6.03;4.43;;;10.00;99.90;;;;;;5071546;28;20024;-77
2024/04/01 05:30:03;;;;;;;6.50;4.80;;;10.00;99.90;;;;;;5071016;28;20032;-76
2024/04/01 05:32:32;;;;;;;6.78;4.03;;;10.00;99.90;;;;;;5070125;28;20071;-76
2024/04/01 05:34:58;;;;;;;7.72;4.22;;;10.00;99.90;;;;;;5072287;28;20016;-76
2024/04/01 05:37:24;;;;;;;7.88;4.50;;;10.00;99.90;;;;;;5071692;28;20319;-76
2024/04/01 05:39:51;;;;;;;6.55;4.03;;;10.00;99.90;;;;;;5072387;28;20394;-76
2024/04/01 05:42:20;;;;;;;7.68;4.22;;;10.00;99.90;;;;;;5071432;28;20016;-77
2024/04/01 05:44:46;;;;;;;10.68;4.20;;;10.10;99.90;;;;;;5072192;28;20031;-76
2024/04/01 05:47:12;;;;;;;7.60;3.90;;;10.10;99.90;;;;;;5071112;28;20021;-77
2024/04/01 05:49:41;;;;;;;6.05;3.97;;;10.10;99.90;;;;;;5071978;28;20059;-76
2024/04/01 05:52:07;;;;;;;8.43;3.83;;;10.10;99.90;;;;;;5071295;28;20497;-76
2024/04/01 05:54:33;;;;;;;8.77;4.20;;;10.10;99.90;;;;;;5071935;28;20017;-77
2024/04/01 05:56:59;;;;;;;6.15;4.32;;;10.10;99.90;;;;;;5070215;28;20394;-76
2024/04/01 05:59:26;;;;;;;5.75;3.45;;;10.20;99.90;;;;;;5071756;28;20016;-77
2024/04/01 06:01:52;;;;;;;8.60;3.72;;;10.20;99.90;;;;;;5071459;28;20029;-76
2024/04/01 06:04:20;;;;;;;5.57;3.65;;;10.20;99.90;;;;;;5071636;28;20020;-76
2024/04/01 06:06:46;;;;;;;6.25;3.80;;;10.20;99.90;;;;;;5071326;28;20462;-77
2024/04/01 06:09:11;;;;;;;6.45;3.90;;;10.20;99.90;;;;;;5071745;28;20104;-77
2024/04/01 06:11:37;;;;;;;4.63;3.00;;;10.20;99.90;;;;;;5071249;28;20048;-77
2024/04/01 06:14:03;;;;;;;7.03;3.90;;;10.30;99.90;;;;;;5070247;28;20056;-77
2024/04/01 06:16:29;;;;;;;8.57;3.88;;;10.30;99.90;;;;;;5071827;28;20021;-77
2024/04/01 06:18:55;;;;;;;7.47;3.80;;;10.30;99.90;;;;;;5071549;28;20021;-76
2024/04/01 06:21:21;;;;;;;5.93;3.60;;;10.30;99.90;;;;;;5071780;28;20094;-76
2024/04/01 06:23:47;;;;;;;7.30;4.28;;;10.30;99.90;;;;;;5071063;28;20059;-77
2024/04/01 06:26:13;;;;;;;6.88;3.25;;;10.30;99.90;;;;;;5071738;28;20044;-76
2024/04/01 06:28:39;;;;;;;7.40;4.00;;;10.30;99.90;;;;;;5070882;28;20124;-76
2024/04/01 06:31:05;;;;;;;6.20;3.97;;;10.30;99.90;;;;;;5071693;28;20414;-77
2024/04/01 06:33:32;;;;;;;6.25;3.50;;;10.30;99.90;;;;;;5070800;28;20017;-77
2024/04/01 06:36:03;;;;;;;7.53;3.50;;;10.30;99.90;;;;;;5070437;28;20025;-77
2024/04/01 06:38:29;;;;;;;6.38;3.30;;;10.30;99.90;;;;;;5069590;28;20024;-77
2024/04/01 06:40:56;;;;;;;4.78;3.63;;;10.30;99.90;;;;;;5072837;28;20063;-77
2024/04/01 06:43:22;;;;;;;6.47;2.90;;;10.30;99.90;;;;;;5070977;28;20031;-77
2024/04/01 06:45:55;;;;;;;6.57;3.20;;;10.30;99.90;;;;;;5073484;28;20025;-76
2024/04/01 06:48:21;;;;;;;8.75;2.88;;;10.30;99.90;;;;;;5072620;28;20029;-76
2024/04/01 06:50:47;;;;;;;4.95;3.00;;;10.30;99.90;;;;;;5073543;28;20037;-76
2024/04/01 06:53:13;;;;;;;4.30;2.38;;;10.20;99.90;;;;;;5071213;28;20024;-75
2024/04/01 06:55:39;;;;;;;6.10;2.75;;;10.20;99.90;;;;;;5072390;28;20031;-76
2024/04/01 06:58:06;;;;;;;5.57;3.35;;;10.20;99.90;;;;;;5074596;28;20060;-76
2024/04/01 07:00:32;;;;;;;4.82;3.22;;;10.20;99.90;;;;;;5075356;28;20509;-76
2024/04/01 07:02:58;;;;;;;5.18;2.55;;;10.20;99.90;;;;;;5076385;28;20150;-76
2024/04/01 07:05:24;;;;;;;3.67;2.65;;;10.20;99.90;;;;;;5077103;28;20027;-77
2024/04/01 07:07:49;;;;;;;4.90;2.95;;;10.20;99.90;;;;;;5075928;28;20066;-77
2024/04/01 07:10:15;;;;;;;4.72;3.10;;;10.30;99.90;;;;;;5077105;28;20521;-77
2024/04/01 07:12:42;;;;;;;4.43;3.08;;;10.20;99.90;;;;;;5075734;28;20021;-77
2024/04/01 07:15:08;;;;;;;3.17;2.28;;;10.30;99.90;;;;;;5075553;28;20489;-77
2024/04/01 07:17:34;;;;;;;4.72;2.92;;;10.30;99.90;;;;;;5074571;28;20352;-77
2024/04/01 07:20:01;;;;;;;4.43;2.80;;;10.30;99.90;;;;;;5077014;28;20016;-76
2024/04/01 07:22:26;;;;;;;5.10;2.95;;;10.30;99.90;;;;;;5075670;28;20429;-76
2024/04/01 07:24:52;;;;;;;5.00;3.10;;;10.30;99.90;;;;;;5075980;28;20183;-76
2024/04/01 07:27:18;;;;;;;5.25;3.10;;;10.30;99.90;;;;;;5074352;28;20367;-77
2024/04/01 07:29:44;;;;;;;5.18;2.95;;;10.30;99.90;;;;;;5074972;28;20077;-76
2024/04/01 07:32:09;;;;;;;4.90;3.03;;;10.30;99.90;;;;;;5075023;28;20032;-77
2024/04/01 07:34:35;;;;;;;6.93;3.00;;;10.30;99.90;;;;;;5074545;28;20033;-77
2024/04/01 07:37:01;;;;;;;5.35;3.15;;;10.30;99.90;;;;;;5074002;28;20473;-77
2024/04/01 07:39:28;;;;;;;6.60;3.47;;;10.30;99.90;;;;;;5074173;28;20031;-77
2024/04/01 07:41:53;;;;;;;4.97;3.03;;;10.30;99.90;;;;;;5074208;28;20032;-77
2024/04/01 07:44:19;;;;;;;5.95;3.05;;;10.30;99.90;;;;;;5074327;28;20032;-77
2024/04/01 07:46:45;;;;;;;5.65;3.28;;;10.30;99.90;;;;;;5074148;28;20016;-77
2024/04/01 07:49:12;;;;;;;4.15;2.60;;;10.30;99.90;;;;;;5073618;28;20035;-77
2024/04/01 07:51:38;;;;;;;4.20;2.85;;;10.30;99.90;;;;;;5073755;28;20040;-77
2024/04/01 07:54:03;;;;;;;5.38;2.90;;;10.40;99.90;;;;;;5073193;28;20078;-77
2024/04/01 07:56:32;;;;;;;5.20;3.20;;;10.30;99.90;;;;;;5073935;28;20482;-77
2024/04/01 07:58:58;;;;;;;6.07;3.20;;;10.30;99.90;;;;;;5073448;28;20041;-77
2024/04/01 08:01:23;;;;;;;4.60;3.30;;;10.40;99.90;;;;;;5073885;28;20103;-77
2024/04/01 08:03:49;;;;;;;7.55;3.38;;;10.40;99.90;;;;;;5072084;28;20506;-77
2024/04/01 08:06:15;;;;;;;5.63;3.15;;;10.40;99.90;;;;;;5073677;28;20529;-77
2024/04/01 08:08:41;;;;;;;5.25;3.28;;;10.40;99.90;;;;;;5073339;28;20101;-77
2024/04/01 08:11:07;;;;;;;6.43;3.40;;;10.40;99.90;;;;;;5072144;28;20158;-77
2024/04/01 08:13:32;;;;;;;9.05;4.15;;;10.50;99.90;;;;;;5073127;28;20017;-77
2024/04/01 08:16:02;;;;;;;4.80;3.60;;;10.50;99.90;;;;;;5073664;28;20029;-77
2024/04/01 08:18:29;;;;;;;5.47;3.70;;;10.50;99.90;;;;;;5073123;28;20027;-77
2024/04/01 08:20:56;;;;;;;5.55;3.63;;;10.50;99.90;;;;;;5072200;28;20103;-77
2024/04/01 08:23:22;;;;;;;5.95;3.95;;;10.50;99.90;;;;;;5073078;28;20025;-77
2024/04/01 08:25:48;;;;;;;8.82;4.22;;;10.50;99.90;;;;;;5072025;28;20024;-78
2024/04/01 08:28:13;;;;;;;5.82;3.90;;;10.50;99.90;;;;;;5072901;28;20031;-77
2024/04/01 08:30:39;;;;;;;6.85;4.75;;;10.50;99.90;;;;;;5073330;28;20021;-77
2024/04/01 08:33:05;;;;;;;6.85;4.60;;;10.50;99.90;;;;;;5072885;28;20095;-77
2024/04/01 08:35:31;;;;;;;9.50;4.07;;;10.60;99.90;;;;;;5073208;28;20028;-77
2024/04/01 08:37:57;;;;;;;6.85;4.63;;;10.60;99.90;;;;;;5072665;28;20021;-77
2024/04/01 08:40:23;;;;;;;6.78;4.30;;;10.60;99.90;;;;;;5072928;28;20021;-77
2024/04/01 08:42:52;;;;;;;6.82;4.60;;;10.60;99.90;;;;;;5072744;28;20071;-77
2024/04/01 08:45:18;;;;;;;7.03;4.60;;;10.60;99.90;;;;;;5072966;28;20096;-77
2024/04/01 08:47:47;;;;;;;7.05;4.82;;;10.60;99.90;;;;;;5072525;28;20020;-77
2024/04/01 08:50:36;;;;;;;7.20;4.72;;;10.60;99.90;;;;;;5072398;28;20049;-77
2024/04/01 08:53:10;;;;;;;7.07;4.82;;;10.60;99.90;;;;;;5072328;28;20023;-77
2024/04/01 08:55:36;;;;;;;11.80;5.70;;;10.60;99.90;;;;;;5072660;28;20017;-77
2024/04/01 08:58:02;;;;;;;7.97;5.40;;;10.60;99.90;;;;;;5070966;28;20070;-77
2024/04/01 09:00:27;;;;;;;8.07;5.60;;;10.60;99.90;;;;;;5071270;28;20029;-77
2024/04/01 09:02:53;;;;;;;9.40;6.60;;;10.60;99.90;;;;;;5072091;28;20094;-76
2024/04/01 09:05:20;;;;;;;7.85;5.75;;;10.60;99.90;;;;;;5072570;28;20033;-78
2024/04/01 09:07:46;;;;;;;9.90;7.65;;;10.60;99.90;;;;;;5071963;28;20055;-77
2024/04/01 09:10:12;;;;;;;11.93;7.15;;;10.60;99.90;;;;;;5072461;28;20020;-77
2024/04/01 09:12:43;;;;;;;9.57;7.47;;;10.60;99.90;;;;;;5072138;28;20119;-76
2024/04/01 09:15:12;;;;;;;9.30;7.18;;;10.60;99.90;;;;;;5072523;28;20035;-77
2024/04/01 09:17:37;;;;;;;9.68;7.38;;;10.60;99.90;;;;;;5071586;28;20024;-77
2024/04/01 09:20:04;;;;;;;7.65;5.57;;;10.60;99.90;;;;;;5072396;28;20021;-77
2024/04/01 09:22:31;;;;;;;8.48;5.68;;;10.60;99.90;;;;;;5071162;28;20020;-77
2024/04/01 09:24:57;;;;;;;9.43;6.35;;;10.60;99.90;;;;;;5072707;28;20028;-77
2024/04/01 09:27:25;;;;;;;9.23;6.93;;;10.60;99.90;;;;;;5070679;28;20389;-76
2024/04/01 09:29:51;;;;;;;9.05;6.05;;;10.50;99.90;;;;;;5071050;28;20051;-77
2024/04/01 09:32:17;;;;;;;7.38;5.22;;;10.50;99.90;;;;;;5071465;28;20028;-76
2024/04/01 09:34:43;;;;;;;8.68;5.97;;;10.50;99.90;;;;;;5070903;28;20021;-77
2024/04/01 09:37:09;;;;;;;8.98;5.72;;;10.50;99.90;;;;;;5071693;28;20031;-76
2024/04/01 09:39:36;;;;;;;12.35;6.20;;;10.50;99.90;;;;;;5072104;28;20397;-77
2024/04/01 09:42:03;;;;;;;9.57;6.38;;;10.50;99.90;;;;;;5071916;28;20017;-77
2024/04/01 09:44:33;;;;;;;10.48;6.90;;;10.50;99.90;;;;;;5071528;28;20600;-77
2024/04/01 09:46:59;;;;;;;11.50;7.15;;;10.60;99.90;;;;;;5071996;28;20119;-77
2024/04/01 09:49:25;;;;;;;9.20;6.28;;;10.60;99.90;;;;;;5071472;28;20107;-76
2024/04/01 09:51:51;;;;;;;9.65;6.07;;;10.60;99.90;;;;;;5071994;28;20041;-77
2024/04/01 09:54:17;;;;;;;8.02;5.90;;;10.70;99.90;;;;;;5071630;28;20021;-76
2024/04/01 09:57:01;;;;;;;9.80;5.97;;;10.70;99.90;;;;;;5071849;28;20043;-77
2024/04/01 09:59:56;;;;;;;8.07;5.90;;;10.80;99.90;;;;;;5071475;28;20021;-77
2024/04/01 10:02:44;;;;;;;9.40;6.00;;;10.80;99.90;;;;;;5070354;28;20036;-76
2024/04/01 10:05:23;;;;;;;9.85;6.55;;;10.80;99.90;;;;;;5072347;28;20071;-76
2024/04/01 10:08:19;;;;;;;7.15;5.90;;;10.80;99.90;;;;;;5071337;28;20037;-76
2024/04/01 10:11:15;;;;;;;8.88;6.13;;;10.80;99.90;;;;;;5072130;28;20020;-76
2024/04/01 10:14:12;;;;;;;7.75;5.80;;;10.80;99.90;;;;;;5071881;28;20389;-77
2024/04/01 10:16:59;;;;;;;8.80;5.55;;;10.80;99.90;;;;;;5071690;28;20033;-76
2024/04/01 10:19:36;;;;;;;8.35;6.43;;;10.80;99.90;;;;;;5071759;28;20028;-76
2024/04/01 10:22:23;;;;;;;8.55;6.13;;;10.80;99.90;;;;;;5071632;28;20029;-76
2024/04/01 10:25:19;;;;;;;9.25;5.95;;;10.80;99.90;;;;;;5071807;28;20032;-77
2024/04/01 10:28:19;;;;;;;9.05;6.10;;;10.80;99.90;;;;;;5071076;28;20051;-77
2024/04/01 10:31:08;;;;;;;8.52;6.32;;;10.80;99.90;;;;;;5072048;28;20044;-76
2024/04/01 10:33:55;;;;;;;7.53;5.88;;;10.80;99.90;;;;;;5073027;28;20471;-76
2024/04/01 10:36:42;;;;;;;8.70;5.70;;;10.90;99.90;;;;;;5075344;28;20028;-76
2024/04/01 10:39:26;;;;;;;7.75;5.65;;;10.90;99.90;;;;;;5075082;28;20021;-76
2024/04/01 10:42:29;;;;;;;7.95;5.60;;;10.90;99.90;;;;;;5075208;28;20492;-75
2024/04/01 10:45:14;;;;;;;7.63;6.22;;;10.90;99.90;;;;;;5075403;28;20033;-77
2024/04/01 10:47:51;;;;;;;8.73;5.88;;;10.90;99.90;;;;;;5074489;28;20048;-77
2024/04/01 10:50:46;;;;;;;8.68;6.53;;;11.00;99.90;;;;;;5075006;28;20571;-77
2024/04/01 10:53:44;;;;;;;7.50;5.50;;;11.00;99.90;;;;;;5074412;28;20028;-77
2024/04/01 10:56:35;;;;;;;9.60;6.80;;;11.00;99.90;;;;;;5075405;28;20017;-77
2024/04/01 10:59:34;;;;;;;11.00;6.90;;;11.00;99.90;;;;;;5072919;28;20028;-77
2024/04/01 11:02:25;;;;;;;8.85;7.05;;;11.10;99.90;;;;;;5074898;28;20664;-77
2024/04/01 11:05:14;;;;;;;11.18;7.00;;;11.10;99.90;;;;;;5074453;28;20405;-77
2024/04/01 11:07:51;;;;;;;9.23;6.57;;;11.10;99.90;;;;;;5074026;28;20025;-77
2024/04/01 11:10:27;;;;;;;10.27;6.85;;;11.10;99.90;;;;;;5074802;28;20033;-77
2024/04/01 11:13:05;;;;;;;10.32;6.57;;;11.10;99.90;;;;;;5074132;28;20086;-77
2024/04/01 11:15:31;;;;;;;10.43;6.38;;;11.10;99.90;;;;;;5074935;28;20024;-77
2024/04/01 11:18:15;;;;;;;10.43;6.65;;;11.10;99.90;;;;;;5074101;28;20104;-77
2024/04/01 11:20:41;;;;;;;11.40;7.90;;;11.10;99.90;;;;;;5074718;28;20060;-78
2024/04/01 11:23:12;;;;;;;12.02;8.38;;;11.10;99.90;;;;;;5073756;28;20029;-77
2024/04/01 11:26:07;;;;;;;11.68;8.13;;;11.10;99.90;;;;;;5074567;28;20028;-77
2024/04/01 11:28:50;;;;;;;8.80;7.18;;;11.10;99.90;;;;;;5073750;28;20033;-78
2024/04/01 11:31:19;;;;;;;9.15;6.80;;;11.10;99.90;;;;;;5077454;28;20021;-76
2024/04/01 11:34:08;;;;;;;10.30;6.93;;;11.10;99.90;;;;;;5073869;28;20047;-78
2024/04/01 11:36:47;;;;;;;9.73;6.57;;;11.10;99.90;;;;;;5074643;28;20024;-78
2024/04/01 11:39:16;;;;;;;10.10;6.38;;;11.00;99.90;;;;;;5073522;28;20028;-78
2024/04/01 11:41:47;;;;;;;10.60;5.78;;;11.10;99.90;;;;;;5074358;28;20112;-78
2024/04/01 11:44:17;;;;;;;8.90;5.28;;;11.10;99.90;;;;;;5073033;28;20107;-77
2024/04/01 11:46:45;;;;;;;10.40;5.50;;;11.10;99.90;;;;;;5074103;28;20021;-78
2024/04/01 11:49:11;;;;;;;7.57;4.80;;;11.10;99.90;;;;;;5073365;28;20056;-78
2024/04/01 11:51:37;;;;;;;12.13;5.18;;;11.20;99.90;;;;;;5073823;28;20121;-78
2024/04/01 11:54:03;;;;;;;7.82;4.55;;;11.20;99.90;;;;;;5073360;28;20024;-78
2024/04/01 11:56:39;;;;;;;9.27;4.40;;;11.20;99.90;;;;;;5074094;28;20059;-78
2024/04/01 11:59:09;;;;;;;12.90;4.45;;;11.30;99.90;;;;;;5073001;28;20024;-78
2024/04/01 12:01:37;;;;;;;7.80;3.87;;;11.30;99.90;;;;;;5074249;28;20036;-78
2024/04/01 12:04:06;;;;;;;7.53;3.85;;;11.40;99.90;;;;;;5071843;28;20086;-78
2024/04/01 12:06:33;;;;;;;5.40;3.53;;;11.40;99.90;;;;;;5073994;28;20025;-78
2024/04/01 12:09:00;;;;;;;6.53;3.60;;;11.50;99.90;;;;;;5073009;28;20505;-78
2024/04/01 12:11:32;;;;;;;8.38;3.47;;;11.50;99.90;;;;;;5073818;28;20059;-77
2024/04/01 12:13:58;;;;;;;10.93;3.50;;;11.60;99.90;;;;;;5073026;28;20109;-77
2024/04/01 12:16:25;;;;;;;6.95;3.30;;;11.60;99.90;;;;;;5073615;28;20025;-78
2024/04/01 12:18:51;;;;;;;8.52;2.92;;;11.70;99.90;;;;;;5071572;28;20047;-78
2024/04/01 12:21:18;;;;;;;7.32;2.88;;;11.80;99.90;;;;;;5073617;28;20108;-78
2024/04/01 12:23:48;;;;;;;6.68;3.08;;;11.90;99.90;;;;;;5072796;28;20024;-77
2024/04/01 12:26:14;;;;;;;7.68;2.72;;;12.00;99.90;;;;;;5072139;28;20032;-78
2024/04/01 12:28:42;;;;;;;6.15;2.72;;;12.10;99.90;;;;;;5072674;28;20024;-78
2024/04/01 12:31:10;;;;;;;6.47;2.55;;;12.20;99.90;;;;;;5073615;28;20024;-78
2024/04/01 12:33:38;;;;;;;11.05;3.45;;;12.20;99.90;;;;;;5072704;28;20016;-77
2024/04/01 12:36:05;;;;;;;6.63;2.30;;;12.20;99.90;;;;;;5073436;28;20029;-77
2024/04/01 12:38:42;;;;;;;6.68;2.20;;;12.40;99.90;;;;;;5072384;28;20040;-77
2024/04/01 12:41:09;;;;;;;5.40;2.28;;;12.40;99.90;;;;;;5073156;28;20029;-78
2024/04/01 12:43:36;;;;;;;5.00;2.03;;;12.60;99.90;;;;;;5072279;28;20044;-78
2024/04/01 12:46:02;;;;;;;4.05;1.90;;;12.70;99.90;;;;;;5073477;28;20046;-78
2024/04/01 12:48:29;;;;;;;5.85;2.30;;;12.90;99.90;;;;;;5072607;28;20536;-77
2024/04/01 12:50:57;;;;;;;5.47;1.83;;;13.10;99.90;;;;;;5072669;28;20516;-78